createdAt,value
2019-05-13T00:02:13.420Z,99.90
2019-05-13T00:07:07.984Z,99.90
2019-05-13T00:12:04.774Z,99.90
2019-05-13T00:16:58.886Z,99.90
2019-05-13T00:21:54.636Z,99.90
2019-05-13T00:26:49.443Z,99.90
2019-05-13T00:31:44.188Z,99.90
2019-05-13T00:36:38.739Z,99.90
2019-05-13T00:41:33.819Z,99.90
2019-05-13T00:46:28.480Z,99.90
2019-05-13T00:51:24.401Z,99.90
2019-05-13T00:56:19.144Z,99.90
2019-05-13T01:01:14.021Z,99.90
2019-05-13T01:06:08.849Z,99.90
2019-05-13T01:11:04.279Z,99.90
2019-05-13T01:15:59.003Z,99.90
2019-05-13T01:20:53.968Z,99.90
2019-05-13T01:25:48.837Z,99.90
2019-05-13T01:30:44.179Z,99.90
2019-05-13T01:35:38.764Z,99.90
2019-05-13T01:40:34.709Z,99.90
2019-05-13T01:45:29.895Z,99.90
2019-05-13T01:50:24.486Z,99.90
2019-05-13T01:55:19.240Z,99.90
2019-05-13T02:00:15.838Z,99.90
2019-05-13T02:05:10.616Z,99.90
2019-05-13T02:10:09.220Z,99.90
2019-05-13T02:15:05.116Z,99.90
2019-05-13T02:19:59.712Z,99.90
2019-05-13T02:24:54.350Z,99.90
2019-05-13T02:29:48.939Z,99.90
2019-05-13T02:34:44.026Z,99.90
2019-05-13T02:39:38.809Z,99.90
2019-05-13T02:44:33.647Z,99.90
2019-05-13T02:49:32.152Z,99.90
2019-05-13T02:54:24.862Z,99.90
2019-05-13T02:59:22.405Z,99.90
2019-05-13T03:04:15.762Z,99.90
2019-05-13T03:09:12.633Z,99.90
2019-05-13T03:14:06.668Z,99.90
2019-05-13T03:19:02.884Z,99.90
2019-05-13T03:23:57.574Z,99.90
2019-05-13T03:28:52.496Z,99.90
2019-05-13T03:33:47.840Z,99.90
2019-05-13T03:38:59.712Z,99.90
2019-05-13T03:43:43.199Z,99.90
2019-05-13T03:48:43.020Z,99.90
2019-05-13T03:53:38.187Z,99.90
2019-05-13T03:58:33.746Z,99.90
2019-05-13T04:03:28.564Z,99.90
2019-05-13T04:08:23.322Z,99.90
2019-05-13T04:13:18.105Z,99.90
2019-05-13T04:18:13.355Z,99.90
2019-05-13T04:23:08.153Z,99.90
2019-05-13T04:28:03.570Z,99.90
2019-05-13T04:32:58.560Z,99.90
2019-05-13T04:37:53.214Z,99.90
2019-05-13T04:42:47.929Z,99.90
2019-05-13T04:47:43.312Z,99.90
2019-05-13T04:52:38.365Z,99.90
2019-05-13T04:57:33.337Z,99.90
2019-05-13T05:02:41.984Z,99.90
2019-05-13T05:08:11.984Z,99.90
2019-05-13T05:13:16.991Z,99.90
2019-05-13T05:19:02.317Z,99.90
2019-05-13T05:24:22.030Z,99.90
2019-05-13T05:29:35.267Z,99.90
2019-05-13T05:34:57.507Z,99.90
2019-05-13T05:39:56.042Z,99.90
2019-05-13T05:44:53.146Z,99.90
2019-05-13T05:49:51.631Z,99.90
2019-05-13T05:54:51.595Z,99.90
2019-05-13T05:59:46.553Z,99.90
2019-05-13T06:04:43.070Z,99.90
2019-05-13T06:09:38.245Z,99.90
2019-05-13T06:14:33.066Z,99.90
2019-05-13T06:19:31.658Z,99.90
2019-05-13T06:24:26.908Z,99.90
2019-05-13T06:29:22.355Z,99.90
2019-05-13T06:34:17.925Z,99.90
2019-05-13T06:39:12.638Z,99.90
2019-05-13T06:44:07.746Z,99.90
2019-05-13T06:49:02.925Z,99.90
2019-05-13T06:53:58.134Z,99.90
2019-05-13T06:58:52.850Z,99.90
2019-05-13T07:03:48.081Z,99.90
2019-05-13T07:08:42.832Z,99.90
2019-05-13T07:13:37.441Z,99.90
2019-05-13T07:18:32.450Z,99.90
2019-05-13T07:23:27.988Z,99.90
2019-05-13T07:28:24.089Z,99.90
2019-05-13T07:33:21.384Z,99.90
2019-05-13T07:38:16.012Z,99.90
2019-05-13T07:43:12.410Z,99.90
2019-05-13T07:48:19.514Z,99.90
2019-05-13T07:53:04.200Z,99.90
2019-05-13T07:58:02.111Z,99.90
2019-05-13T08:02:57.101Z,99.90
2019-05-13T08:07:52.085Z,99.90
2019-05-13T08:12:51.557Z,99.90
2019-05-13T08:17:47.768Z,99.90
2019-05-13T08:22:42.737Z,99.90
2019-05-13T08:27:47.061Z,99.90
2019-05-13T08:32:42.048Z,99.90
2019-05-13T08:37:44.153Z,99.90
2019-05-13T08:42:41.523Z,99.90
2019-05-13T08:47:36.795Z,99.90
2019-05-13T08:52:31.512Z,99.90
2019-05-13T08:57:26.161Z,99.90
2019-05-13T09:02:22.177Z,99.90
2019-05-13T09:07:17.137Z,99.90
2019-05-13T09:12:28.138Z,99.90
2019-05-13T09:17:08.964Z,99.90
2019-05-13T09:22:03.649Z,99.90
2019-05-13T09:26:58.316Z,99.90
2019-05-13T09:31:53.422Z,99.90
2019-05-13T09:36:48.052Z,99.90
2019-05-13T09:41:44.573Z,99.90
2019-05-13T09:46:39.211Z,99.90
2019-05-13T09:51:36.010Z,99.90
2019-05-13T09:56:32.046Z,99.90
2019-05-13T10:01:26.705Z,99.90
2019-05-13T10:06:22.292Z,99.90
2019-05-13T10:11:17.039Z,99.90
2019-05-13T10:16:12.419Z,99.90
2019-05-13T10:21:07.541Z,99.90
2019-05-13T10:26:07.304Z,99.90
2019-05-13T10:31:02.428Z,99.90
2019-05-13T10:35:57.702Z,99.90
2019-05-13T10:40:52.480Z,99.90
2019-05-13T10:45:48.087Z,99.90
2019-05-13T10:50:42.697Z,99.90
2019-05-13T10:55:37.339Z,99.90
2019-05-13T11:00:51.763Z,99.90
2019-05-13T11:05:52.262Z,99.90
2019-05-13T11:10:46.601Z,99.90
2019-05-13T11:15:45.421Z,99.90
2019-05-13T11:20:38.553Z,99.90
2019-05-13T11:25:33.219Z,99.90
2019-05-13T11:30:28.138Z,99.90
2019-05-13T11:35:22.989Z,99.90
2019-05-13T11:40:18.447Z,99.90
2019-05-13T11:45:14.132Z,99.90
2019-05-13T11:50:11.551Z,99.90
2019-05-13T11:55:12.776Z,99.90
2019-05-13T12:00:13.453Z,99.90
2019-05-13T12:05:09.677Z,99.90
2019-05-13T12:10:07.917Z,99.90
2019-05-13T12:15:26.297Z,99.90
2019-05-13T12:20:03.404Z,99.90
2019-05-13T12:24:58.333Z,99.90
2019-05-13T12:29:53.309Z,99.90
2019-05-13T12:34:48.210Z,99.90
2019-05-13T12:39:44.094Z,99.90
2019-05-13T12:44:59.857Z,99.90
2019-05-13T12:49:36.785Z,99.90
2019-05-13T12:54:32.455Z,99.90
2019-05-13T12:59:36.775Z,99.90
2019-05-13T13:04:33.623Z,99.90
2019-05-13T13:09:28.548Z,99.90
2019-05-13T13:14:23.458Z,99.90
2019-05-13T13:19:18.169Z,99.90
2019-05-13T13:24:12.848Z,99.90
2019-05-13T13:29:07.524Z,99.90
2019-05-13T13:34:11.269Z,99.90
2019-05-13T13:38:58.592Z,99.90
2019-05-13T13:43:54.079Z,99.90
2019-05-13T13:48:49.037Z,99.90
2019-05-13T13:53:44.619Z,99.90
2019-05-13T13:58:43.296Z,99.90
2019-05-13T14:03:35.998Z,99.90
2019-05-13T14:08:31.810Z,99.90
2019-05-13T14:13:26.661Z,99.90
2019-05-13T14:18:26.839Z,99.90
2019-05-13T14:23:21.287Z,99.90
2019-05-13T14:28:17.538Z,99.90
2019-05-13T14:33:12.520Z,99.90
2019-05-13T14:38:07.105Z,99.90
2019-05-13T14:43:05.778Z,99.90
2019-05-13T14:48:01.720Z,99.90
2019-05-13T14:52:56.505Z,99.90
2019-05-13T14:57:52.567Z,99.90
2019-05-13T15:02:47.402Z,99.90
2019-05-13T15:07:42.300Z,99.90
2019-05-13T15:12:36.958Z,99.90
2019-05-13T15:17:34.300Z,99.90
2019-05-13T15:22:28.228Z,99.90
2019-05-13T15:27:22.838Z,99.90
2019-05-13T15:32:17.410Z,99.90
2019-05-13T15:37:12.390Z,99.90
2019-05-13T15:42:07.125Z,99.90
2019-05-13T15:47:03.923Z,99.90
2019-05-13T15:51:58.041Z,99.90
2019-05-13T15:56:52.636Z,99.90
2019-05-13T16:01:47.256Z,99.90
2019-05-13T16:06:41.985Z,99.90
2019-05-13T16:11:36.755Z,99.30
2019-05-13T16:16:32.732Z,99.40
2019-05-13T16:21:27.314Z,99.20
2019-05-13T16:26:22.723Z,99.00
2019-05-13T16:31:17.651Z,98.60
2019-05-13T16:36:12.793Z,98.80
2019-05-13T16:41:07.857Z,98.80
2019-05-13T16:46:02.602Z,99.20
2019-05-13T16:50:57.345Z,98.70
2019-05-13T16:55:51.943Z,98.70
2019-05-13T17:00:47.757Z,98.50
2019-05-13T17:05:42.357Z,98.10
2019-05-13T17:10:36.971Z,98.20
2019-05-13T17:15:31.570Z,98.50
2019-05-13T17:20:26.199Z,98.70
2019-05-13T17:25:20.790Z,98.50
2019-05-13T17:30:16.425Z,98.60
2019-05-13T17:35:11.875Z,98.40
2019-05-13T17:40:11.710Z,98.30
2019-05-13T17:45:11.313Z,98.70
2019-05-13T17:50:08.986Z,98.30
2019-05-13T17:55:04.540Z,97.90
2019-05-13T17:59:59.127Z,97.90
2019-05-13T18:04:53.712Z,98.00
2019-05-13T18:09:48.311Z,98.30
2019-05-13T18:14:42.896Z,98.50
2019-05-13T18:19:37.493Z,98.70
2019-05-13T18:24:32.308Z,98.50
2019-05-13T18:29:27.041Z,98.60
2019-05-13T18:34:21.704Z,98.90
2019-05-13T18:39:16.310Z,99.10
2019-05-13T18:44:12.198Z,99.40
2019-05-13T18:49:07.318Z,99.80
2019-05-13T18:54:01.962Z,99.90
2019-05-13T18:58:56.647Z,99.90
2019-05-13T19:03:51.304Z,99.90
2019-05-13T19:08:45.908Z,99.90
2019-05-13T19:13:41.684Z,99.90
2019-05-13T19:18:36.476Z,99.90
2019-05-13T19:23:31.492Z,99.90
2019-05-13T19:28:26.340Z,99.90
2019-05-13T19:33:22.076Z,99.90
2019-05-13T19:38:16.972Z,99.90
2019-05-13T19:43:11.794Z,99.90
2019-05-13T19:48:06.707Z,99.90
2019-05-13T19:53:01.407Z,99.90
2019-05-13T19:57:56.048Z,99.90
2019-05-13T20:02:50.707Z,99.90
2019-05-13T20:07:45.321Z,99.90
2019-05-13T20:12:41.913Z,99.90
2019-05-13T20:17:36.232Z,99.90
2019-05-13T20:22:31.345Z,99.90
2019-05-13T20:27:26.323Z,99.90
2019-05-13T20:32:22.202Z,99.90
2019-05-13T20:37:16.983Z,99.90
2019-05-13T20:42:12.466Z,99.90
2019-05-13T20:47:07.420Z,99.90
2019-05-13T20:52:02.789Z,99.90
2019-05-13T20:56:57.458Z,99.90
2019-05-13T21:01:52.103Z,99.90
2019-05-13T21:06:46.856Z,99.90
2019-05-13T21:11:41.823Z,99.90
2019-05-13T21:16:36.507Z,99.90
2019-05-13T21:21:31.221Z,99.90
2019-05-13T21:26:25.924Z,99.90
2019-05-13T21:31:21.487Z,99.90
2019-05-13T21:36:16.352Z,99.90
2019-05-13T21:41:11.771Z,99.90
2019-05-13T21:46:06.567Z,99.90
2019-05-13T21:51:01.154Z,99.90
2019-05-13T21:55:55.713Z,99.90
2019-05-13T22:00:51.993Z,99.90
2019-05-13T22:05:46.810Z,99.90
2019-05-13T22:10:41.701Z,99.90
2019-05-13T22:15:36.443Z,99.90
2019-05-13T22:20:33.049Z,99.90
2019-05-13T22:25:27.457Z,99.90
2019-05-13T22:30:22.149Z,99.90
2019-05-13T22:35:16.857Z,99.90
2019-05-13T22:40:11.686Z,99.90
2019-05-13T22:45:07.181Z,99.90
2019-05-13T22:50:02.237Z,99.90
2019-05-13T22:54:57.102Z,99.90
2019-05-13T22:59:52.080Z,99.90
2019-05-13T23:04:46.651Z,99.90
2019-05-13T23:09:41.679Z,99.90
2019-05-13T23:14:36.476Z,99.90
2019-05-13T23:19:32.321Z,99.90
2019-05-13T23:24:27.109Z,99.90
2019-05-13T23:29:21.697Z,99.90
2019-05-13T23:34:16.270Z,99.90
2019-05-13T23:39:11.646Z,99.90
2019-05-13T23:44:19.987Z,99.90
2019-05-13T23:49:03.025Z,99.90
2019-05-13T23:53:57.596Z,99.90
2019-05-13T23:58:52.221Z,99.90
